Time,TemperatureF,DewpointF,PressureIn,WindDirection,WindDirectionDegrees,WindSpeedMPH,WindSpeedGustMPH,Humidity,HourlyPrecipIn,Conditions,Clouds,dailyrainin,SolarRadiationWatts/m^2,SoftwareType,DateUTC
2013-03-28 00:11:00,55.0,6.0,29.83,NW,313,0.0,-999.0,14,-99.99,,,0.00,0,weatherlink.com 1.10,2013-03-28 06:11:00,
2013-03-28 00:26:00,53.8,5.0,29.84,NW,313,0.0,-999.0,14,-99.99,,,0.00,0,weatherlink.com 1.10,2013-03-28 06:26:00,
2013-03-28 00:41:00,53.0,6.0,29.84,NW,313,0.0,-999.0,15,-99.99,,,0.00,0,weatherlink.com 1.10,2013-03-28 06:41:00,
2013-03-28 00:56:00,51.8,5.0,29.84,NW,313,0.0,-999.0,15,-99.99,,,0.00,0,weatherlink.com 1.10,2013-03-28 06:56:00,
2013-03-28 01:11:00,51.0,6.0,29.84,NW,313,0.0,-999.0,16,-99.99,,,0.00,0,weatherlink.com 1.10,2013-03-28 07:11:00,
2013-03-28 01:26:00,51.7,7.0,29.84,NW,313,0.0,-999.0,16,-99.99,,,0.00,0,weatherlink.com 1.10,2013-03-28 07:26:00,
2013-03-28 01:56:00,52.3,7.0,29.84,NW,304,0.0,-999.0,16,-99.99,,,0.00,0,weatherlink.com 1.10,2013-03-28 07:56:00,
2013-03-28 02:11:00,53.2,8.0,29.84,NW,304,0.0,-999.0,16,-99.99,,,0.00,0,weatherlink.com 1.10,2013-03-28 08:11:00,
2013-03-28 02:26:00,53.6,8.0,29.84,NW,304,0.0,-999.0,16,-99.99,,,0.00,0,weatherlink.com 1.10,2013-03-28 08:26:00,
2013-03-28 02:42:00,53.6,8.0,29.83,NW,304,0.0,-999.0,16,-99.99,,,0.00,0,weatherlink.com 1.10,2013-03-28 08:42:00,
2013-03-28 02:57:00,53.5,8.0,29.83,NW,304,0.0,-999.0,16,-99.99,,,0.00,0,weatherlink.com 1.10,2013-03-28 08:57:00,
2013-03-28 03:12:00,52.9,9.0,29.83,NW,305,1.0,-999.0,17,-99.99,,,0.00,0,weatherlink.com 1.10,2013-03-28 09:12:00,
2013-03-28 03:27:00,53.2,9.0,29.83,NW,306,0.0,-999.0,17,-99.99,,,0.00,0,weatherlink.com 1.10,2013-03-28 09:27:00,
2013-03-28 03:42:00,53.0,9.0,29.83,NW,305,0.0,-999.0,17,-99.99,,,0.00,0,weatherlink.com 1.10,2013-03-28 09:42:00,
2013-03-28 03:57:00,52.7,9.0,29.83,WSW,238,0.0,-999.0,17,-99.99,,,0.00,0,weatherlink.com 1.10,2013-03-28 09:57:00,
2013-03-28 04:12:00,52.3,8.0,29.83,WSW,238,0.0,-999.0,17,-99.99,,,0.00,0,weatherlink.com 1.10,2013-03-28 10:12:00,
2013-03-28 04:27:00,51.4,8.0,29.82,WSW,238,0.0,-999.0,17,-99.99,,,0.00,0,weatherlink.com 1.10,2013-03-28 10:27:00,
2013-03-28 04:42:00,50.7,8.0,29.82,WSW,238,0.0,-999.0,18,-99.99,,,0.00,0,weatherlink.com 1.10,2013-03-28 10:42:00,
2013-03-28 04:57:00,50.6,8.0,29.82,WSW,238,0.0,-999.0,18,-99.99,,,0.00,0,weatherlink.com 1.10,2013-03-28 10:57:00,
2013-03-28 05:12:00,50.0,8.0,29.82,NW,304,0.0,-999.0,18,-99.99,,,0.00,0,weatherlink.com 1.10,2013-03-28 11:12:00,
2013-03-28 05:27:00,50.3,9.0,29.82,NW,304,0.0,-999.0,19,-99.99,,,0.00,0,weatherlink.com 1.10,2013-03-28 11:27:00,
2013-03-28 05:42:00,49.9,10.0,29.82,NW,304,0.0,-999.0,20,-99.99,,,0.00,0,weatherlink.com 1.10,2013-03-28 11:42:00,
2013-03-28 05:57:00,48.7,10.0,29.83,SSE,159,0.0,-999.0,21,-99.99,,,0.00,0,weatherlink.com 1.10,2013-03-28 11:57:00,
2013-03-28 06:12:00,48.0,10.0,29.83,North,355,1.0,-999.0,21,-99.99,,,0.00,0,weatherlink.com 1.10,2013-03-28 12:12:00,
2013-03-28 06:27:00,47.7,9.0,29.84,NNW,344,0.0,-999.0,21,-99.99,,,0.00,0,weatherlink.com 1.10,2013-03-28 12:27:00,
2013-03-28 06:42:00,48.1,10.0,29.84,NNW,344,0.0,-999.0,21,-99.99,,,0.00,0,weatherlink.com 1.10,2013-03-28 12:42:00,
2013-03-28 06:57:00,47.5,10.0,29.84,NNW,340,1.0,-999.0,22,-99.99,,,0.00,0,weatherlink.com 1.10,2013-03-28 12:57:00,
2013-03-28 07:12:00,47.1,10.0,29.84,NNW,343,0.0,-999.0,22,-99.99,,,0.00,7,weatherlink.com 1.10,2013-03-28 13:12:00,
2013-03-28 07:27:00,47.4,12.0,29.85,NNW,347,1.0,-999.0,24,-99.99,,,0.00,14,weatherlink.com 1.10,2013-03-28 13:27:00,
2013-03-28 07:42:00,47.9,12.0,29.86,NNW,346,4.0,-999.0,23,-99.99,,,0.00,23,weatherlink.com 1.10,2013-03-28 13:42:00,
2013-03-28 07:57:00,48.7,12.0,29.86,NNW,330,5.0,-999.0,23,-99.99,,,0.00,42,weatherlink.com 1.10,2013-03-28 13:57:00,
2013-03-28 08:12:00,49.3,13.0,29.86,NNW,344,1.0,-999.0,23,-99.99,,,0.00,51,weatherlink.com 1.10,2013-03-28 14:12:00,
2013-03-28 08:27:00,50.0,14.0,29.87,NNW,346,3.0,-999.0,24,-99.99,,,0.00,56,weatherlink.com 1.10,2013-03-28 14:27:00,
2013-03-28 08:42:00,50.8,15.0,29.87,NNW,340,4.0,-999.0,24,-99.99,,,0.00,311,weatherlink.com 1.10,2013-03-28 14:42:00,
2013-03-28 08:57:00,53.6,15.0,29.88,NW,324,0.0,-999.0,22,-99.99,,,0.00,376,weatherlink.com 1.10,2013-03-28 14:57:00,
2013-03-28 09:12:00,55.4,16.0,29.87,North,349,0.0,-999.0,21,-99.99,,,0.00,432,weatherlink.com 1.10,2013-03-28 15:12:00,
2013-03-28 09:27:00,58.2,15.0,29.87,North,350,0.0,-999.0,18,-99.99,,,0.00,471,weatherlink.com 1.10,2013-03-28 15:27:00,
2013-03-28 09:42:00,60.8,14.0,29.88,NE,34,0.0,-999.0,16,-99.99,,,0.00,533,weatherlink.com 1.10,2013-03-28 15:42:00,
2013-03-28 09:58:00,62.4,14.0,29.88,SE,137,0.0,-999.0,15,-99.99,,,0.00,575,weatherlink.com 1.10,2013-03-28 15:58:00,
2013-03-28 10:13:00,63.0,14.0,29.88,SSW,202,2.0,-999.0,15,-99.99,,,0.00,589,weatherlink.com 1.10,2013-03-28 16:13:00,
2013-03-28 10:28:00,62.9,14.0,29.87,SSE,154,2.0,-999.0,15,-99.99,,,0.00,642,weatherlink.com 1.10,2013-03-28 16:28:00,
2013-03-28 10:43:00,63.8,13.0,29.87,SSW,211,0.0,-999.0,14,-99.99,,,0.00,701,weatherlink.com 1.10,2013-03-28 16:43:00,
2013-03-28 10:58:00,64.5,14.0,29.87,South,184,3.0,-999.0,14,-99.99,,,0.00,752,weatherlink.com 1.10,2013-03-28 16:58:00,
2013-03-28 11:13:00,64.8,14.0,29.86,SW,214,4.0,-999.0,14,-99.99,,,0.00,524,weatherlink.com 1.10,2013-03-28 17:13:00,
2013-03-28 11:28:00,66.5,14.0,29.86,SSE,153,0.0,-999.0,13,-99.99,,,0.00,824,weatherlink.com 1.10,2013-03-28 17:28:00,
2013-03-28 11:43:00,68.4,14.0,29.85,SSE,154,0.0,-999.0,12,-99.99,,,0.00,849,weatherlink.com 1.10,2013-03-28 17:43:00,
2013-03-28 11:58:00,69.2,12.0,29.84,North,349,0.0,-999.0,11,-99.99,,,0.00,830,weatherlink.com 1.10,2013-03-28 17:58:00,
2013-03-28 12:13:00,69.5,8.0,29.83,WNW,290,10.0,-999.0,9,-99.99,,,0.00,754,weatherlink.com 1.10,2013-03-28 18:13:00,
2013-03-28 12:28:00,71.5,7.0,29.83,West,277,4.0,-999.0,8,-99.99,,,0.00,896,weatherlink.com 1.10,2013-03-28 18:28:00,
2013-03-28 12:43:00,72.3,10.0,29.82,WNW,294,5.0,-999.0,9,-99.99,,,0.00,895,weatherlink.com 1.10,2013-03-28 18:43:00,
2013-03-28 12:58:00,74.1,9.0,29.82,West,281,1.0,-999.0,8,-99.99,,,0.00,879,weatherlink.com 1.10,2013-03-28 18:58:00,
2013-03-28 13:13:00,73.8,9.0,29.81,WNW,301,7.0,-999.0,8,-99.99,,,0.00,772,weatherlink.com 1.10,2013-03-28 19:13:00,
2013-03-28 13:28:00,72.4,8.0,29.81,West,263,5.0,-999.0,8,-99.99,,,0.00,937,weatherlink.com 1.10,2013-03-28 19:28:00,
2013-03-28 13:43:00,72.4,8.0,29.80,NNW,348,4.0,-999.0,8,-99.99,,,0.00,954,weatherlink.com 1.10,2013-03-28 19:43:00,
2013-03-28 13:58:00,73.2,8.0,29.80,SSW,210,3.0,-999.0,8,-99.99,,,0.00,775,weatherlink.com 1.10,2013-03-28 19:58:00,
2013-03-28 14:13:00,75.0,7.0,29.79,WNW,295,9.0,-999.0,7,-99.99,,,0.00,840,weatherlink.com 1.10,2013-03-28 20:13:00,
2013-03-28 14:28:00,75.0,7.0,29.78,WSW,250,4.0,-999.0,7,-99.99,,,0.00,294,weatherlink.com 1.10,2013-03-28 20:28:00,
2013-03-28 14:43:00,73.6,9.0,29.77,WSW,252,4.0,-999.0,8,-99.99,,,0.00,715,weatherlink.com 1.10,2013-03-28 20:43:00,
2013-03-28 14:58:00,74.0,9.0,29.77,NNE,22,0.0,-999.0,8,-99.99,,,0.00,276,weatherlink.com 1.10,2013-03-28 20:58:00,
2013-03-28 15:13:00,73.2,8.0,29.76,SW,235,1.0,-999.0,8,-99.99,,,0.00,236,weatherlink.com 1.10,2013-03-28 21:13:00,
2013-03-28 15:28:00,73.6,9.0,29.76,WSW,242,5.0,-999.0,8,-99.99,,,0.00,199,weatherlink.com 1.10,2013-03-28 21:28:00,
2013-03-28 15:44:00,73.8,14.0,29.75,NW,322,0.0,-999.0,10,-99.99,,,0.00,221,weatherlink.com 1.10,2013-03-28 21:44:00,
2013-03-28 15:59:00,73.0,15.0,29.76,WSW,250,10.0,-999.0,11,-99.99,,,0.00,167,weatherlink.com 1.10,2013-03-28 21:59:00,
2013-03-28 16:14:00,70.9,16.0,29.75,West,277,11.0,-999.0,12,-99.99,,,0.00,149,weatherlink.com 1.10,2013-03-28 22:14:00,
2013-03-28 16:29:00,70.2,15.0,29.74,WNW,297,7.0,-999.0,12,-99.99,,,0.00,127,weatherlink.com 1.10,2013-03-28 22:29:00,
2013-03-28 16:44:00,70.1,15.0,29.74,WNW,300,3.0,-999.0,12,-99.99,,,0.00,121,weatherlink.com 1.10,2013-03-28 22:44:00,
2013-03-28 16:59:00,70.7,16.0,29.74,West,281,1.0,-999.0,12,-99.99,,,0.00,146,weatherlink.com 1.10,2013-03-28 22:59:00,
2013-03-28 17:14:00,71.1,14.0,29.73,WNW,294,2.0,-999.0,11,-99.99,,,0.00,109,weatherlink.com 1.10,2013-03-28 23:14:00,
2013-03-28 17:29:00,71.3,14.0,29.73,West,279,0.0,-999.0,11,-99.99,,,0.00,97,weatherlink.com 1.10,2013-03-28 23:29:00,
2013-03-28 17:44:00,71.4,14.0,29.73,NW,304,2.0,-999.0,11,-99.99,,,0.00,81,weatherlink.com 1.10,2013-03-28 23:44:00,
2013-03-28 17:59:00,71.0,14.0,29.74,West,275,3.0,-999.0,11,-99.99,,,0.00,76,weatherlink.com 1.10,2013-03-28 23:59:00,
2013-03-28 18:14:00,70.7,14.0,29.74,NW,315,1.0,-999.0,11,-99.99,,,0.00,63,weatherlink.com 1.10,2013-03-29 00:14:00,
2013-03-28 18:29:00,70.0,15.0,29.74,West,281,12.0,-999.0,12,-99.99,,,0.00,30,weatherlink.com 1.10,2013-03-29 00:29:00,
2013-03-28 18:44:00,68.7,16.0,29.75,West,270,5.0,-999.0,13,-99.99,,,0.00,18,weatherlink.com 1.10,2013-03-29 00:44:00,
2013-03-28 18:59:00,67.9,17.0,29.76,SSW,209,2.0,-999.0,14,-99.99,,,0.00,9,weatherlink.com 1.10,2013-03-29 00:59:00,
2013-03-28 19:14:00,66.7,19.0,29.76,WSW,254,20.0,-999.0,16,-99.99,,,0.00,0,weatherlink.com 1.10,2013-03-29 01:14:00,
2013-03-28 19:29:00,65.4,21.0,29.77,WSW,244,8.0,-999.0,18,-99.99,,,0.00,0,weatherlink.com 1.10,2013-03-29 01:29:00,
2013-03-28 19:44:00,65.4,21.0,29.77,West,262,4.0,-999.0,18,-99.99,,,0.00,0,weatherlink.com 1.10,2013-03-29 01:44:00,
2013-03-28 19:59:00,65.1,22.0,29.77,SW,234,9.0,-999.0,19,-99.99,,,0.00,0,weatherlink.com 1.10,2013-03-29 01:59:00,
2013-03-28 20:14:00,64.9,22.0,29.78,SW,221,1.0,-999.0,19,-99.99,,,0.00,0,weatherlink.com 1.10,2013-03-29 02:14:00,
2013-03-28 20:29:00,65.2,20.0,29.78,NW,313,3.0,-999.0,18,-99.99,,,0.00,0,weatherlink.com 1.10,2013-03-29 02:29:00,
2013-03-28 20:44:00,64.7,20.0,29.79,WSW,252,0.0,-999.0,18,-99.99,,,0.00,0,weatherlink.com 1.10,2013-03-29 02:44:00,
2013-03-28 20:59:00,64.3,20.0,29.79,West,271,0.0,-999.0,18,-99.99,,,0.00,0,weatherlink.com 1.10,2013-03-29 02:59:00,
2013-03-28 21:14:00,63.8,19.0,29.79,WNW,284,6.0,-999.0,18,-99.99,,,0.00,0,weatherlink.com 1.10,2013-03-29 03:14:00,
2013-03-28 21:29:00,63.5,19.0,29.79,NW,311,0.0,-999.0,18,-99.99,,,0.00,0,weatherlink.com 1.10,2013-03-29 03:29:00,
2013-03-28 21:44:00,63.3,19.0,29.80,NW,317,1.0,-999.0,18,-99.99,,,0.00,0,weatherlink.com 1.10,2013-03-29 03:44:00,
2013-03-28 21:59:00,64.0,21.0,29.81,NW,321,4.0,-999.0,19,-99.99,,,0.00,0,weatherlink.com 1.10,2013-03-29 03:59:00,
2013-03-28 22:14:00,64.1,20.0,29.81,WNW,282,1.0,-999.0,18,-99.99,,,0.00,0,weatherlink.com 1.10,2013-03-29 04:14:00,
2013-03-28 22:29:00,62.7,21.0,29.81,WSW,255,0.0,-999.0,20,-99.99,,,0.00,0,weatherlink.com 1.10,2013-03-29 04:29:00,
2013-03-28 22:44:00,61.6,20.0,29.81,WSW,248,0.0,-999.0,20,-99.99,,,0.00,0,weatherlink.com 1.10,2013-03-29 04:44:00,
2013-03-28 22:59:00,60.1,20.0,29.82,West,273,0.0,-999.0,21,-99.99,,,0.00,0,weatherlink.com 1.10,2013-03-29 04:59:00,
2013-03-28 23:14:00,59.0,20.0,29.82,West,281,2.0,-999.0,22,-99.99,,,0.00,0,weatherlink.com 1.10,2013-03-29 05:14:00,
2013-03-28 23:29:00,58.6,22.0,29.82,West,275,2.0,-999.0,24,-99.99,,,0.00,0,weatherlink.com 1.10,2013-03-29 05:29:00,
2013-03-28 23:44:00,59.0,22.0,29.82,West,259,1.0,-999.0,24,-99.99,,,0.00,0,weatherlink.com 1.10,2013-03-29 05:44:00,
2013-03-28 23:59:00,58.7,21.0,29.82,WSW,250,0.0,-999.0,23,-99.99,,,0.00,0,weatherlink.com 1.10,2013-03-29 05:59:00,